createdAt,value
2018-10-17T00:00:41.031Z,37.00
2018-10-17T00:03:10.718Z,35.20
2018-10-17T00:05:40.334Z,37.47
2018-10-17T00:08:09.980Z,37.30
2018-10-17T00:10:39.640Z,37.37
2018-10-17T00:13:09.368Z,36.73
2018-10-17T00:15:38.958Z,36.00
2018-10-17T00:18:08.671Z,36.93
2018-10-17T00:20:38.294Z,36.53
2018-10-17T00:23:07.954Z,38.07
2018-10-17T00:25:37.622Z,36.03
2018-10-17T00:28:07.257Z,35.27
2018-10-17T00:30:36.907Z,35.40
2018-10-17T00:33:06.562Z,34.03
2018-10-17T00:35:36.188Z,34.20
2018-10-17T00:38:05.861Z,34.37
2018-10-17T00:40:35.635Z,35.20
2018-10-17T00:43:05.251Z,34.33
2018-10-17T00:45:34.867Z,36.07
2018-10-17T00:48:04.541Z,35.27
2018-10-17T00:50:34.187Z,36.17
2018-10-17T00:53:03.856Z,37.43
2018-10-17T00:55:33.524Z,33.70
2018-10-17T00:58:03.223Z,34.70
2018-10-17T01:00:32.866Z,34.73
2018-10-17T01:03:02.486Z,33.87
2018-10-17T01:05:32.094Z,34.03
2018-10-17T01:08:01.757Z,33.13
2018-10-17T01:10:31.374Z,33.20
2018-10-17T01:13:01.050Z,32.70
2018-10-17T01:15:30.694Z,32.17
2018-10-17T01:18:00.330Z,32.83
2018-10-17T01:20:29.950Z,32.77
2018-10-17T01:22:59.669Z,30.57
2018-10-17T01:25:29.275Z,33.27
2018-10-17T01:27:58.899Z,33.50
2018-10-17T01:30:28.520Z,34.53
2018-10-17T01:32:58.170Z,33.80
2018-10-17T01:35:27.863Z,32.10
2018-10-17T01:37:57.492Z,32.63
2018-10-17T01:40:27.138Z,38.47
2018-10-17T01:42:56.833Z,32.10
2018-10-17T01:45:26.439Z,30.93
2018-10-17T01:47:56.109Z,32.20
2018-10-17T01:50:25.726Z,31.63
2018-10-17T01:52:55.392Z,32.37
2018-10-17T01:55:25.009Z,32.50
2018-10-17T01:57:54.613Z,30.67
2018-10-17T02:00:24.374Z,30.60
2018-10-17T02:02:54.309Z,28.77
2018-10-17T02:05:23.910Z,28.73
2018-10-17T02:07:53.518Z,28.50
2018-10-17T02:10:23.138Z,27.70
2018-10-17T02:12:52.784Z,28.13
2018-10-17T02:15:22.519Z,27.53
2018-10-17T02:17:52.175Z,27.60
2018-10-17T02:20:21.810Z,27.47
2018-10-17T02:22:51.454Z,26.57
2018-10-17T02:25:21.072Z,27.07
2018-10-17T02:27:50.675Z,25.53
2018-10-17T02:30:20.303Z,28.27
2018-10-17T02:32:49.962Z,26.03
2018-10-17T02:35:19.972Z,26.60
2018-10-17T02:37:49.594Z,26.57
2018-10-17T02:40:19.226Z,26.83
2018-10-17T02:42:48.871Z,26.97
2018-10-17T02:45:18.515Z,27.07
2018-10-17T02:47:48.174Z,26.00
2018-10-17T02:50:17.811Z,26.83
2018-10-17T02:52:47.472Z,26.27
2018-10-17T02:55:17.074Z,26.20
2018-10-17T02:57:46.694Z,27.10
2018-10-17T03:00:16.359Z,28.93
2018-10-17T03:02:46.010Z,28.50
2018-10-17T03:05:15.687Z,30.93
2018-10-17T03:07:45.341Z,30.17
2018-10-17T03:10:14.993Z,28.37
2018-10-17T03:12:44.599Z,29.97
2018-10-17T03:15:14.197Z,32.20
2018-10-17T03:17:43.823Z,32.33
2018-10-17T03:20:13.479Z,31.30
2018-10-17T03:22:43.129Z,32.37
2018-10-17T03:25:12.820Z,30.87
2018-10-17T03:27:42.453Z,31.83
2018-10-17T03:30:12.063Z,31.90
2018-10-17T03:32:41.684Z,34.13
2018-10-17T03:35:11.404Z,33.80
2018-10-17T03:37:40.969Z,31.60
2018-10-17T03:40:10.600Z,33.83
2018-10-17T03:42:40.228Z,33.93
2018-10-17T03:45:09.913Z,33.37
2018-10-17T03:47:39.512Z,34.03
2018-10-17T03:50:09.148Z,34.00
2018-10-17T03:52:38.756Z,35.27
2018-10-17T03:55:08.483Z,35.83
2018-10-17T03:57:38.043Z,37.70
2018-10-17T04:00:08.373Z,35.40
2018-10-17T04:05:08.527Z,37.93
2018-10-17T04:07:38.084Z,37.63
2018-10-17T04:10:07.797Z,38.53
2018-10-17T04:12:37.403Z,37.63
2018-10-17T04:15:07.455Z,38.30
2018-10-17T04:17:37.081Z,38.77
2018-10-17T04:20:06.730Z,41.13
2018-10-17T04:22:36.395Z,43.53
2018-10-17T04:25:06.426Z,45.20
2018-10-17T04:27:36.019Z,45.13
2018-10-17T04:30:06.379Z,48.20
2018-10-17T04:32:35.994Z,49.30
2018-10-17T04:35:05.845Z,46.37
2018-10-17T04:37:35.476Z,42.87
2018-10-17T04:40:05.154Z,41.03
2018-10-17T04:42:34.749Z,37.80
2018-10-17T04:45:04.807Z,37.63
2018-10-17T04:47:34.491Z,37.53
2018-10-17T04:50:04.155Z,37.67
2018-10-17T04:52:33.774Z,41.83
2018-10-17T04:55:03.478Z,49.30
2018-10-17T04:57:33.090Z,53.57
2018-10-17T05:00:02.736Z,48.40
2018-10-17T05:02:32.330Z,47.70
2018-10-17T05:05:01.991Z,46.90
2018-10-17T05:07:31.621Z,45.20
2018-10-17T05:10:01.256Z,45.13
2018-10-17T05:12:30.852Z,42.73
2018-10-17T05:15:00.603Z,42.70
2018-10-17T05:17:30.200Z,42.67
2018-10-17T05:19:59.821Z,40.93
2018-10-17T05:22:29.425Z,43.30
2018-10-17T05:24:59.085Z,42.57
2018-10-17T05:27:28.748Z,41.77
2018-10-17T05:29:58.443Z,43.07
2018-10-17T05:32:28.051Z,40.47
2018-10-17T05:34:57.656Z,40.50
2018-10-17T05:37:27.429Z,39.57
2018-10-17T05:39:57.017Z,39.90
2018-10-17T05:42:26.651Z,41.23
2018-10-17T05:44:56.403Z,42.70
2018-10-17T05:47:26.022Z,43.63
2018-10-17T05:49:55.708Z,42.80
2018-10-17T05:52:25.312Z,44.73
2018-10-17T05:54:54.953Z,42.07
2018-10-17T05:57:24.663Z,46.87
2018-10-17T05:59:54.338Z,46.63
2018-10-17T06:02:26.598Z,46.17
2018-10-17T06:04:56.621Z,45.10
2018-10-17T06:07:26.223Z,44.63
2018-10-17T06:09:55.943Z,44.10
2018-10-17T06:12:25.624Z,46.93
2018-10-17T06:14:55.323Z,56.73
2018-10-17T06:17:25.004Z,58.47
2018-10-17T06:19:54.636Z,57.93
2018-10-17T06:22:24.247Z,55.90
2018-10-17T06:24:53.855Z,51.40
2018-10-17T06:27:23.497Z,71.77
2018-10-17T06:29:53.126Z,57.50
2018-10-17T06:32:22.730Z,56.83
2018-10-17T06:34:52.471Z,57.60
2018-10-17T06:37:22.079Z,55.93
2018-10-17T06:39:51.709Z,59.13
2018-10-17T06:42:21.311Z,60.43
2018-10-17T06:44:50.927Z,73.23
2018-10-17T06:47:20.737Z,73.77
2018-10-17T06:49:50.192Z,73.97
2018-10-17T06:52:19.902Z,100.33
2018-10-17T06:54:49.687Z,84.60
2018-10-17T06:57:19.322Z,72.93
2018-10-17T06:59:48.953Z,99.57
2018-10-17T07:02:19.117Z,119.97
2018-10-17T07:04:48.742Z,63.20
2018-10-17T07:07:18.464Z,50.03
2018-10-17T07:09:48.154Z,52.37
2018-10-17T07:12:17.793Z,52.60
2018-10-17T07:14:47.408Z,51.63
2018-10-17T07:17:17.130Z,72.23
2018-10-17T07:19:46.704Z,52.20
2018-10-17T07:22:16.402Z,61.07
2018-10-17T07:24:46.028Z,50.63
2018-10-17T07:27:15.644Z,47.67
2018-10-17T07:29:45.454Z,47.40
2018-10-17T07:32:14.944Z,47.27
2018-10-17T07:34:44.574Z,47.93
2018-10-17T07:37:14.188Z,45.70
2018-10-17T07:39:43.815Z,46.70
2018-10-17T07:42:13.502Z,44.77
2018-10-17T07:44:44.260Z,44.67
2018-10-17T07:47:13.868Z,44.83
2018-10-17T07:49:43.500Z,50.53
2018-10-17T07:52:13.109Z,43.63
2018-10-17T07:54:42.722Z,40.73
2018-10-17T07:57:12.333Z,40.80
2018-10-17T07:59:41.956Z,40.33
2018-10-17T08:02:11.622Z,42.00
2018-10-17T08:04:41.267Z,81.13
2018-10-17T08:07:10.868Z,45.00
2018-10-17T08:09:40.681Z,40.20
2018-10-17T08:12:10.390Z,48.80
2018-10-17T08:14:41.740Z,44.17
2018-10-17T08:17:12.136Z,42.37
2018-10-17T08:19:41.805Z,41.23
2018-10-17T08:22:11.401Z,49.53
2018-10-17T08:24:41.035Z,52.93
2018-10-17T08:27:10.962Z,42.37
2018-10-17T08:29:40.588Z,40.13
2018-10-17T08:32:10.833Z,41.37
2018-10-17T08:34:40.549Z,45.60
2018-10-17T08:39:42.384Z,37.53
2018-10-17T08:42:11.985Z,35.53
2018-10-17T08:44:41.632Z,40.73
2018-10-17T08:47:11.279Z,38.83
2018-10-17T08:49:40.940Z,49.10
2018-10-17T08:52:10.572Z,46.93
2018-10-17T08:54:40.215Z,34.60
2018-10-17T08:57:09.851Z,40.73
2018-10-17T08:59:39.490Z,35.57
2018-10-17T09:02:09.193Z,37.60
2018-10-17T09:04:38.941Z,41.23
2018-10-17T09:07:08.578Z,33.13
2018-10-17T09:09:38.217Z,35.10
2018-10-17T09:12:07.931Z,35.07
2018-10-17T09:14:37.586Z,36.30
2018-10-17T09:17:07.242Z,35.67
2018-10-17T09:19:37.060Z,30.20
2018-10-17T09:24:46.083Z,38.20
2018-10-17T09:27:15.709Z,40.37
2018-10-17T09:29:45.355Z,33.43
2018-10-17T09:32:15.000Z,34.13
2018-10-17T09:34:44.723Z,36.37
2018-10-17T09:37:14.354Z,38.23
2018-10-17T09:39:43.970Z,32.30
2018-10-17T09:42:13.774Z,31.97
2018-10-17T09:44:43.459Z,30.27
2018-10-17T09:47:13.109Z,72.23
2018-10-17T09:49:42.770Z,63.73
2018-10-17T09:52:12.496Z,284.73
2018-10-17T09:54:42.163Z,490.23
2018-10-17T09:57:11.868Z,262.97
2018-10-17T09:59:41.482Z,57.23
2018-10-17T10:02:11.339Z,218.60
2018-10-17T10:04:41.020Z,167.83
2018-10-17T10:07:10.636Z,50.83
2018-10-17T10:09:40.250Z,36.83
2018-10-17T10:12:09.953Z,27.30
2018-10-17T10:14:39.540Z,24.53
2018-10-17T10:17:09.258Z,25.60
2018-10-17T10:19:38.882Z,24.37
2018-10-17T10:22:08.676Z,22.20
2018-10-17T10:24:38.367Z,21.30
2018-10-17T10:27:08.299Z,19.87
2018-10-17T10:29:37.993Z,18.23
2018-10-17T10:32:07.677Z,19.53
2018-10-17T10:34:37.322Z,17.90
2018-10-17T10:37:07.335Z,18.43
2018-10-17T10:39:38.135Z,20.53
2018-10-17T10:42:08.311Z,17.33
2018-10-17T10:44:37.906Z,18.53
2018-10-17T10:47:07.560Z,18.00
2018-10-17T10:49:37.199Z,16.47
2018-10-17T10:52:07.015Z,15.23
2018-10-17T10:54:36.721Z,16.87
2018-10-17T10:57:06.492Z,16.87
2018-10-17T10:59:36.235Z,17.53
2018-10-17T11:02:05.794Z,18.17
2018-10-17T11:04:35.495Z,15.70
2018-10-17T11:07:05.421Z,14.40
2018-10-17T11:09:35.137Z,15.90
2018-10-17T11:12:04.827Z,14.67
2018-10-17T11:14:34.536Z,15.77
2018-10-17T11:17:04.149Z,14.03
2018-10-17T11:19:33.760Z,15.30
2018-10-17T11:22:03.477Z,13.70
2018-10-17T11:24:33.066Z,16.80
2018-10-17T11:27:02.820Z,13.30
2018-10-17T11:29:32.546Z,13.67
2018-10-17T11:32:02.345Z,15.03
2018-10-17T11:34:31.889Z,18.33
2018-10-17T11:37:01.550Z,14.43
2018-10-17T11:39:31.200Z,14.67
2018-10-17T11:42:00.813Z,13.73
2018-10-17T11:44:30.428Z,13.13
2018-10-17T11:47:00.088Z,12.90
2018-10-17T11:49:29.727Z,12.23
2018-10-17T11:51:59.363Z,13.53
2018-10-17T11:54:28.973Z,12.77
2018-10-17T11:56:58.652Z,14.07
2018-10-17T11:59:28.450Z,13.77
2018-10-17T12:01:58.061Z,15.73
2018-10-17T12:04:27.911Z,14.93
2018-10-17T12:06:57.359Z,16.23
2018-10-17T12:09:26.952Z,14.70
2018-10-17T12:11:56.663Z,13.90
2018-10-17T12:14:26.250Z,15.33
2018-10-17T12:16:55.862Z,14.45
2018-10-17T12:19:25.475Z,15.13
2018-10-17T12:23:24.470Z,13.55
2018-10-17T12:25:54.109Z,14.50
2018-10-17T12:30:55.413Z,15.48
2018-10-17T12:33:25.038Z,14.65
2018-10-17T12:35:54.684Z,15.78
2018-10-17T12:38:24.298Z,14.63
2018-10-17T12:40:54.138Z,13.80
2018-10-17T12:43:23.580Z,13.88
2018-10-17T12:45:53.196Z,13.08
2018-10-17T12:48:22.848Z,18.85
2018-10-17T12:50:52.515Z,16.40
2018-10-17T12:53:22.186Z,14.68
2018-10-17T12:55:51.792Z,14.95
2018-10-17T12:58:21.539Z,13.50
2018-10-17T13:00:51.260Z,13.68
2018-10-17T13:03:20.915Z,13.43
2018-10-17T13:05:50.549Z,11.70
2018-10-17T13:08:20.179Z,14.07
2018-10-17T13:10:49.810Z,13.20
2018-10-17T13:13:24.864Z,11.85
2018-10-17T13:15:54.596Z,14.53
2018-10-17T13:18:24.210Z,11.40
2018-10-17T13:20:53.818Z,11.12
2018-10-17T13:23:23.919Z,10.85
2018-10-17T13:25:53.556Z,11.78
2018-10-17T13:28:23.292Z,10.90
2018-10-17T13:30:52.934Z,10.43
2018-10-17T13:33:22.571Z,10.55
2018-10-17T13:35:52.248Z,10.50
2018-10-17T13:38:21.862Z,13.10
2018-10-17T13:40:51.563Z,19.05
2018-10-17T13:43:21.283Z,18.12
2018-10-17T13:45:50.898Z,18.15
2018-10-17T13:48:20.577Z,15.40
2018-10-17T13:50:50.328Z,11.15
2018-10-17T13:53:19.963Z,18.45
2018-10-17T13:55:49.569Z,19.05
2018-10-17T13:58:19.284Z,11.03
2018-10-17T14:00:48.859Z,10.93
2018-10-17T14:03:18.501Z,10.48
2018-10-17T14:05:48.194Z,11.97
2018-10-17T14:08:17.913Z,11.12
2018-10-17T14:10:47.547Z,11.97
2018-10-17T14:13:17.230Z,11.03
2018-10-17T14:15:46.901Z,11.57
2018-10-17T14:18:16.575Z,12.03
2018-10-17T14:20:46.332Z,16.25
2018-10-17T14:23:15.985Z,23.30
2018-10-17T14:25:45.639Z,26.68
2018-10-17T14:28:15.302Z,15.23
2018-10-17T14:30:44.949Z,19.02
2018-10-17T14:33:14.692Z,25.97
2018-10-17T14:35:44.318Z,26.10
2018-10-17T14:38:13.937Z,41.42
2018-10-17T14:40:43.649Z,100.58
2018-10-17T14:43:13.303Z,41.18
2018-10-17T14:45:43.078Z,35.90
2018-10-17T14:48:12.845Z,45.65
2018-10-17T14:50:42.413Z,32.13
2018-10-17T14:53:12.214Z,31.05
2018-10-17T14:55:41.916Z,24.57
2018-10-17T14:58:11.511Z,49.35
2018-10-17T15:00:41.268Z,24.30
2018-10-17T15:03:10.938Z,22.60
2018-10-17T15:05:40.614Z,20.82
2018-10-17T15:08:10.241Z,19.27
2018-10-17T15:10:39.879Z,18.65
2018-10-17T15:13:09.538Z,16.15
2018-10-17T15:15:44.254Z,15.05
2018-10-17T15:18:14.895Z,16.15
2018-10-17T15:20:44.690Z,17.25
2018-10-17T15:23:17.199Z,15.53
2018-10-17T15:25:46.806Z,17.00
2018-10-17T15:28:16.443Z,16.97
2018-10-17T15:30:46.109Z,16.40
2018-10-17T15:33:15.723Z,15.72
2018-10-17T15:35:45.490Z,16.93
2018-10-17T15:38:15.129Z,18.25
2018-10-17T15:40:44.734Z,20.23
2018-10-17T15:43:14.463Z,20.33
2018-10-17T15:45:44.198Z,21.03
2018-10-17T15:48:13.904Z,20.13
2018-10-17T15:50:43.636Z,21.13
2018-10-17T15:53:13.376Z,22.23
2018-10-17T15:55:43.017Z,21.53
2018-10-17T15:58:12.653Z,20.33
2018-10-17T16:00:53.907Z,20.30
2018-10-17T16:03:25.599Z,20.53
2018-10-17T16:05:55.313Z,21.23
2018-10-17T16:08:27.542Z,22.53
2018-10-17T16:10:57.195Z,24.50
2018-10-17T16:13:26.872Z,26.80
2018-10-17T16:15:56.595Z,42.80
2018-10-17T16:18:26.206Z,58.63
2018-10-17T16:20:55.834Z,54.23
2018-10-17T16:23:25.470Z,49.80
2018-10-17T16:25:55.183Z,39.70
2018-10-17T16:28:24.820Z,37.90
2018-10-17T16:30:54.670Z,40.00
2018-10-17T16:33:24.294Z,48.43
2018-10-17T16:35:53.932Z,48.03
2018-10-17T16:38:23.606Z,51.37
2018-10-17T16:40:53.241Z,57.50
2018-10-17T16:43:22.930Z,57.30
2018-10-17T16:45:52.589Z,51.90
2018-10-17T16:48:22.271Z,51.33
2018-10-17T16:50:52.048Z,67.57
2018-10-17T16:53:21.923Z,53.70
2018-10-17T16:55:51.590Z,58.90
2018-10-17T16:58:21.528Z,56.70
2018-10-17T17:00:51.242Z,57.70
2018-10-17T17:03:21.572Z,57.03
2018-10-17T17:05:51.355Z,56.50
2018-10-17T17:08:20.977Z,73.70
2018-10-17T17:10:50.585Z,68.47
2018-10-17T17:13:20.281Z,71.73
2018-10-17T17:15:50.162Z,70.33
2018-10-17T17:18:20.282Z,75.03
2018-10-17T17:20:49.968Z,75.23
2018-10-17T17:23:19.596Z,81.67
2018-10-17T17:25:49.387Z,80.77
2018-10-17T17:28:19.037Z,84.27
2018-10-17T17:30:48.712Z,83.03
2018-10-17T17:33:18.503Z,83.53
2018-10-17T17:35:48.183Z,82.23
2018-10-17T17:38:17.787Z,82.57
2018-10-17T17:43:13.651Z,88.17
2018-10-17T17:45:43.288Z,86.70
2018-10-17T17:48:12.906Z,83.83
2018-10-17T17:50:42.520Z,86.73
2018-10-17T17:53:12.148Z,86.27
2018-10-17T17:55:41.760Z,97.90
2018-10-17T17:58:11.414Z,106.53
2018-10-17T18:00:41.138Z,106.33
2018-10-17T18:03:10.842Z,100.70
2018-10-17T18:05:40.481Z,104.10
2018-10-17T18:08:10.132Z,108.47
2018-10-17T18:10:39.790Z,116.97
2018-10-17T18:13:09.468Z,111.87
2018-10-17T18:15:39.159Z,104.87
2018-10-17T18:18:08.793Z,110.73
2018-10-17T18:20:38.435Z,107.83
2018-10-17T18:23:08.079Z,112.53
2018-10-17T18:25:37.755Z,111.47
2018-10-17T18:28:07.681Z,114.87
2018-10-17T18:30:37.184Z,135.93
2018-10-17T18:33:06.814Z,111.23
2018-10-17T18:35:36.442Z,187.17
2018-10-17T18:38:06.097Z,135.63
2018-10-17T18:40:35.801Z,136.20
2018-10-17T18:43:05.527Z,127.37
2018-10-17T18:45:35.291Z,125.47
2018-10-17T18:48:04.946Z,132.07
2018-10-17T18:50:34.598Z,126.27
2018-10-17T18:53:04.358Z,126.20
2018-10-17T18:55:34.041Z,125.03
2018-10-17T18:58:03.772Z,124.30
2018-10-17T19:00:33.427Z,124.80
2018-10-17T19:03:03.219Z,119.47
2018-10-17T19:05:32.962Z,126.60
2018-10-17T19:08:02.634Z,122.17
2018-10-17T19:10:32.313Z,126.00
2018-10-17T19:13:01.950Z,129.80
2018-10-17T19:15:31.591Z,130.83
2018-10-17T19:18:01.252Z,129.60
2018-10-17T19:20:30.888Z,129.67
2018-10-17T19:23:00.612Z,126.13
2018-10-17T19:25:30.317Z,143.90
2018-10-17T19:27:59.945Z,136.27
2018-10-17T19:30:29.574Z,136.53
2018-10-17T19:32:59.203Z,129.67
2018-10-17T19:35:28.904Z,127.57
2018-10-17T19:37:58.548Z,124.77
2018-10-17T19:40:28.186Z,120.97
2018-10-17T19:42:57.838Z,132.10
2018-10-17T19:45:27.478Z,127.43
2018-10-17T19:47:57.249Z,124.20
2018-10-17T19:50:26.837Z,129.77
2018-10-17T19:52:56.509Z,125.67
2018-10-17T19:55:26.160Z,122.03
2018-10-17T19:57:55.759Z,117.20
2018-10-17T20:00:25.405Z,116.13
2018-10-17T20:02:55.063Z,115.20
2018-10-17T20:05:24.713Z,110.30
2018-10-17T20:07:55.184Z,108.67
2018-10-17T20:10:24.829Z,103.80
2018-10-17T20:12:54.518Z,100.93
2018-10-17T20:15:24.161Z,99.43
2018-10-17T20:17:53.905Z,100.27
2018-10-17T20:20:23.533Z,97.60
2018-10-17T20:22:53.166Z,93.03
2018-10-17T20:25:22.803Z,87.67
2018-10-17T20:27:52.482Z,88.77
2018-10-17T20:30:22.100Z,91.13
2018-10-17T20:32:51.777Z,88.33
2018-10-17T20:35:21.423Z,86.97
2018-10-17T20:37:51.045Z,81.43
2018-10-17T20:40:20.683Z,79.00
2018-10-17T20:42:50.321Z,82.30
2018-10-17T20:45:20.062Z,81.97
2018-10-17T20:47:49.668Z,69.80
2018-10-17T20:50:19.338Z,87.73
2018-10-17T20:52:48.966Z,76.03
2018-10-17T20:55:18.610Z,66.67
2018-10-17T20:57:48.222Z,76.47
2018-10-17T21:00:17.818Z,74.17
2018-10-17T21:02:47.452Z,74.97
2018-10-17T21:05:17.094Z,71.73
2018-10-17T21:07:46.724Z,68.30
2018-10-17T21:10:16.350Z,68.67
2018-10-17T21:12:45.975Z,69.17
2018-10-17T21:15:15.599Z,67.17
2018-10-17T21:17:45.263Z,65.67
2018-10-17T21:20:14.979Z,69.07
2018-10-17T21:22:44.561Z,68.67
2018-10-17T21:25:14.209Z,69.23
2018-10-17T21:27:43.844Z,74.00
2018-10-17T21:30:13.474Z,91.43
2018-10-17T21:32:43.086Z,79.17
2018-10-17T21:35:12.713Z,83.73
2018-10-17T21:37:42.350Z,79.00
2018-10-17T21:40:11.997Z,86.33
2018-10-17T21:42:41.692Z,86.43
2018-10-17T21:45:11.420Z,74.93
2018-10-17T21:47:41.050Z,71.53
2018-10-17T21:50:10.705Z,63.77
2018-10-17T21:52:40.362Z,57.13
2018-10-17T21:55:10.002Z,57.73
2018-10-17T21:57:39.635Z,55.97
2018-10-17T22:00:10.571Z,57.23
2018-10-17T22:02:40.542Z,50.83
2018-10-17T22:05:10.929Z,51.67
2018-10-17T22:07:40.576Z,50.73
2018-10-17T22:10:10.330Z,47.60
2018-10-17T22:12:40.008Z,49.20
2018-10-17T22:15:10.373Z,49.03
2018-10-17T22:19:59.711Z,47.23
2018-10-17T22:22:29.338Z,47.27
2018-10-17T22:24:58.999Z,47.90
2018-10-17T22:27:28.626Z,45.77
2018-10-17T22:32:27.396Z,45.20
2018-10-17T22:34:57.169Z,44.77
2018-10-17T22:37:26.838Z,44.17
2018-10-17T22:39:56.918Z,45.37
2018-10-17T22:42:26.547Z,47.93
2018-10-17T22:44:56.177Z,49.07
2018-10-17T22:47:25.805Z,44.80
2018-10-17T22:49:55.523Z,45.13
2018-10-17T22:52:25.165Z,44.23
2018-10-17T22:54:54.790Z,45.87
2018-10-17T22:57:24.437Z,47.60
2018-10-17T22:59:54.072Z,47.60
2018-10-17T23:02:23.701Z,51.67
2018-10-17T23:04:53.322Z,46.23
2018-10-17T23:07:23.081Z,44.87
2018-10-17T23:09:52.887Z,51.20
2018-10-17T23:12:22.552Z,49.90
2018-10-17T23:14:53.081Z,50.90
2018-10-17T23:17:22.816Z,46.97
2018-10-17T23:19:52.448Z,44.87
2018-10-17T23:22:22.052Z,45.83
2018-10-17T23:24:51.754Z,45.47
2018-10-17T23:27:21.423Z,45.00
2018-10-17T23:29:51.054Z,45.43
2018-10-17T23:32:20.712Z,41.33
2018-10-17T23:34:50.350Z,42.63
2018-10-17T23:37:20.151Z,41.77
2018-10-17T23:39:49.796Z,42.13
2018-10-17T23:42:19.455Z,41.60
2018-10-17T23:44:49.077Z,41.40
2018-10-17T23:47:18.733Z,41.23
2018-10-17T23:49:49.171Z,42.20
2018-10-17T23:52:19.117Z,40.17
2018-10-17T23:54:48.740Z,41.00
2018-10-17T23:57:18.381Z,40.50
2018-10-17T23:59:48.029Z,41.10
